createdAt,value
2022-12-31T00:01:17.232Z,14.44
2022-12-31T00:03:44.817Z,14.45
2022-12-31T00:06:14.063Z,14.47
2022-12-31T00:08:40.739Z,14.55
2022-12-31T00:11:07.232Z,14.56
2022-12-31T00:13:33.703Z,14.62
2022-12-31T00:16:12.780Z,14.62
2022-12-31T00:18:39.548Z,14.69
2022-12-31T00:21:08.275Z,14.67
2022-12-31T00:23:35.678Z,14.69
2022-12-31T00:26:08.635Z,14.67
2022-12-31T00:28:36.565Z,14.63
2022-12-31T00:31:11.881Z,14.53
2022-12-31T00:33:38.704Z,14.50
2022-12-31T00:36:16.856Z,14.45
2022-12-31T00:38:45.455Z,14.28
2022-12-31T00:41:13.262Z,14.26
2022-12-31T00:43:40.255Z,14.23
2022-12-31T00:46:07.709Z,14.25
2022-12-31T00:48:35.672Z,14.23
2022-12-31T00:51:03.806Z,14.13
2022-12-31T00:53:30.474Z,14.20
2022-12-31T00:56:06.031Z,14.19
2022-12-31T00:58:33.722Z,14.14
2022-12-31T01:01:11.769Z,14.14
2022-12-31T01:03:38.588Z,14.09
2022-12-31T01:06:06.259Z,14.07
2022-12-31T01:08:33.118Z,13.99
2022-12-31T01:11:19.299Z,14.00
2022-12-31T01:13:56.925Z,14.03
2022-12-31T01:16:33.266Z,14.02
2022-12-31T01:19:02.046Z,13.95
2022-12-31T01:21:29.243Z,13.97
2022-12-31T01:23:55.735Z,13.97
2022-12-31T01:26:22.328Z,13.99
2022-12-31T01:28:48.967Z,13.94
2022-12-31T01:31:17.750Z,13.92
2022-12-31T01:33:44.770Z,13.99
2022-12-31T01:36:23.408Z,13.99
2022-12-31T01:38:52.039Z,13.97
2022-12-31T01:41:31.995Z,13.98
2022-12-31T01:44:01.154Z,13.96
2022-12-31T01:46:36.656Z,14.05
2022-12-31T01:49:20.623Z,14.07
2022-12-31T01:51:58.935Z,14.09
2022-12-31T01:54:27.645Z,14.17
2022-12-31T01:56:56.288Z,14.17
2022-12-31T01:59:24.641Z,14.19
2022-12-31T02:01:54.561Z,14.22
2022-12-31T02:04:24.150Z,14.26
2022-12-31T02:06:57.684Z,14.31
2022-12-31T02:09:24.255Z,14.32
2022-12-31T02:11:50.740Z,14.40
2022-12-31T02:14:22.882Z,14.47
2022-12-31T02:17:07.719Z,14.57
2022-12-31T02:20:11.545Z,14.64
2022-12-31T02:22:56.663Z,14.77
2022-12-31T02:25:44.397Z,14.77
2022-12-31T02:28:41.051Z,14.88
2022-12-31T02:31:17.165Z,14.96
2022-12-31T02:34:00.984Z,15.03
2022-12-31T02:36:33.277Z,15.07
2022-12-31T02:39:00.829Z,15.20
2022-12-31T02:41:45.853Z,15.30
2022-12-31T02:44:36.225Z,15.31
2022-12-31T02:47:08.861Z,15.40
2022-12-31T02:49:57.222Z,15.44
2022-12-31T02:52:45.508Z,15.48
2022-12-31T02:55:34.568Z,15.57
2022-12-31T02:58:48.158Z,15.60
2022-12-31T03:01:39.319Z,15.65
2022-12-31T03:04:24.557Z,15.75
2022-12-31T03:06:52.439Z,15.88
2022-12-31T03:09:19.002Z,15.88
2022-12-31T03:12:04.753Z,16.03
2022-12-31T03:14:31.100Z,16.13
2022-12-31T03:16:57.612Z,16.24
2022-12-31T03:19:42.682Z,16.37
2022-12-31T03:22:27.707Z,16.32
2022-12-31T03:25:21.063Z,16.27
2022-12-31T03:27:48.333Z,16.17
2022-12-31T03:30:16.788Z,16.00
2022-12-31T03:32:44.999Z,15.95
2022-12-31T03:35:14.115Z,15.83
2022-12-31T03:37:41.886Z,15.81
2022-12-31T03:40:11.269Z,15.83
2022-12-31T03:42:37.908Z,15.90
2022-12-31T03:45:05.059Z,15.81
2022-12-31T03:47:32.056Z,15.76
2022-12-31T03:49:58.584Z,15.88
2022-12-31T03:52:25.062Z,15.89
2022-12-31T03:54:51.542Z,15.94
2022-12-31T03:57:18.047Z,15.94
2022-12-31T03:59:44.534Z,16.01
2022-12-31T04:02:11.219Z,16.09
2022-12-31T04:04:37.910Z,16.12
2022-12-31T04:07:04.543Z,16.11
2022-12-31T04:09:30.999Z,15.86
2022-12-31T04:11:57.495Z,15.71
2022-12-31T04:14:23.967Z,15.54
2022-12-31T04:16:50.572Z,15.48
2022-12-31T04:19:17.190Z,15.42
2022-12-31T04:21:43.623Z,15.39
2022-12-31T04:24:10.653Z,15.36
2022-12-31T04:26:38.360Z,15.35
2022-12-31T04:29:05.297Z,15.34
2022-12-31T04:31:32.669Z,15.41
2022-12-31T04:33:59.161Z,15.54
2022-12-31T04:36:25.585Z,15.76
2022-12-31T04:38:52.034Z,15.71
2022-12-31T04:41:18.712Z,15.73
2022-12-31T04:43:50.781Z,15.83
2022-12-31T04:46:19.605Z,15.84
2022-12-31T04:48:46.750Z,15.89
2022-12-31T04:51:13.956Z,16.01
2022-12-31T04:53:40.798Z,16.00
2022-12-31T04:56:07.840Z,16.05
2022-12-31T04:58:35.184Z,16.07
2022-12-31T05:01:01.906Z,16.22
2022-12-31T05:03:28.487Z,16.32
2022-12-31T05:06:00.789Z,16.38
2022-12-31T05:08:27.243Z,16.34
2022-12-31T05:10:53.661Z,16.46
2022-12-31T05:13:20.408Z,16.60
2022-12-31T05:15:47.608Z,16.52
2022-12-31T05:18:14.552Z,16.70
2022-12-31T05:20:40.990Z,16.61
2022-12-31T05:23:07.769Z,16.67
2022-12-31T05:25:34.515Z,16.62
2022-12-31T05:28:01.169Z,16.73
2022-12-31T05:30:27.704Z,16.85
2022-12-31T05:32:54.492Z,16.94
2022-12-31T05:35:20.960Z,16.92
2022-12-31T05:37:47.434Z,16.88
2022-12-31T05:40:14.075Z,17.05
2022-12-31T05:42:40.526Z,17.04
2022-12-31T05:45:07.479Z,17.18
2022-12-31T05:47:33.981Z,17.21
2022-12-31T05:50:00.464Z,17.26
2022-12-31T05:52:26.990Z,17.23
2022-12-31T05:54:53.505Z,17.34
2022-12-31T05:57:19.985Z,17.34
2022-12-31T05:59:46.489Z,17.34
2022-12-31T06:02:12.956Z,17.43
2022-12-31T06:04:39.491Z,17.38
2022-12-31T06:07:05.972Z,17.44
2022-12-31T06:09:32.408Z,17.44
2022-12-31T06:11:58.866Z,17.32
2022-12-31T06:14:25.388Z,17.49
2022-12-31T06:16:51.810Z,17.51
2022-12-31T06:19:18.263Z,17.59
2022-12-31T06:21:44.775Z,17.47
2022-12-31T06:24:11.309Z,17.61
2022-12-31T06:26:37.749Z,17.56
2022-12-31T06:29:04.269Z,17.63
2022-12-31T06:31:30.771Z,17.64
2022-12-31T06:33:57.351Z,17.68
2022-12-31T06:36:23.857Z,17.68
2022-12-31T06:38:50.665Z,17.69
2022-12-31T06:41:18.624Z,17.72
2022-12-31T06:43:45.698Z,17.65
2022-12-31T06:46:15.706Z,17.65
2022-12-31T06:48:44.670Z,17.69
2022-12-31T06:51:17.431Z,17.78
2022-12-31T06:53:45.819Z,17.78
2022-12-31T06:56:31.251Z,17.66
2022-12-31T06:59:00.920Z,17.77
2022-12-31T07:01:48.592Z,17.79
2022-12-31T07:04:38.371Z,17.68
2022-12-31T07:07:27.029Z,17.77
2022-12-31T07:10:25.571Z,17.77
2022-12-31T07:12:58.580Z,17.75
2022-12-31T07:15:40.258Z,17.72
2022-12-31T07:18:26.484Z,17.72
2022-12-31T07:20:53.301Z,17.84
2022-12-31T07:23:20.174Z,17.75
2022-12-31T07:26:15.304Z,17.78
2022-12-31T07:29:08.456Z,17.95
2022-12-31T07:32:07.118Z,17.79
2022-12-31T07:35:04.475Z,17.75
2022-12-31T07:38:15.487Z,17.84
2022-12-31T07:40:47.822Z,17.88
2022-12-31T07:43:36.075Z,17.84
2022-12-31T07:46:22.660Z,17.79
2022-12-31T07:48:50.577Z,17.85
2022-12-31T07:51:17.375Z,17.74
2022-12-31T07:53:44.005Z,17.74
2022-12-31T07:56:10.532Z,17.81
2022-12-31T07:58:39.724Z,17.87
2022-12-31T08:01:12.469Z,17.79
2022-12-31T08:03:59.951Z,17.79
2022-12-31T08:06:42.271Z,17.74
2022-12-31T08:09:34.788Z,17.75
2022-12-31T08:12:02.633Z,17.76
2022-12-31T08:14:29.854Z,17.83
2022-12-31T08:16:57.240Z,17.87
2022-12-31T08:19:29.827Z,17.86
2022-12-31T08:22:18.029Z,17.89
2022-12-31T08:24:50.584Z,17.84
2022-12-31T08:27:29.295Z,17.89
2022-12-31T08:30:05.428Z,17.93
2022-12-31T08:32:46.430Z,17.95
2022-12-31T08:35:22.153Z,18.00
2022-12-31T08:38:22.681Z,17.99
2022-12-31T08:41:08.190Z,18.09
2022-12-31T08:43:43.576Z,18.14
2022-12-31T08:46:40.453Z,18.14
2022-12-31T08:49:09.745Z,18.03
2022-12-31T08:51:36.772Z,18.19
2022-12-31T08:54:03.946Z,18.17
2022-12-31T08:56:48.834Z,18.11
2022-12-31T08:59:44.194Z,18.11
2022-12-31T09:02:19.986Z,18.15
2022-12-31T09:04:54.176Z,18.15
2022-12-31T09:07:31.484Z,18.20
2022-12-31T09:10:20.832Z,18.15
2022-12-31T09:13:08.471Z,18.13
2022-12-31T09:15:43.764Z,18.13
2022-12-31T09:18:11.604Z,18.13
2022-12-31T09:20:43.728Z,18.22
2022-12-31T09:23:11.412Z,18.25
2022-12-31T09:25:58.632Z,18.20
2022-12-31T09:28:43.427Z,18.11
2022-12-31T09:31:40.994Z,18.18
2022-12-31T09:34:33.604Z,18.16
2022-12-31T09:37:05.707Z,18.25
2022-12-31T09:39:45.498Z,18.24
2022-12-31T09:42:42.723Z,18.34
2022-12-31T09:45:33.440Z,18.26
2022-12-31T09:48:27.994Z,18.25
2022-12-31T09:51:26.924Z,18.18
2022-12-31T09:54:15.044Z,18.21
2022-12-31T09:57:09.430Z,18.15
2022-12-31T10:00:12.154Z,18.25
2022-12-31T10:02:42.043Z,17.69
2022-12-31T10:05:26.639Z,17.83
2022-12-31T10:07:56.118Z,17.79
2022-12-31T10:10:40.971Z,17.91
2022-12-31T10:13:40.484Z,17.96
2022-12-31T10:16:22.174Z,18.05
2022-12-31T10:19:04.052Z,18.06
2022-12-31T10:21:57.952Z,18.09
2022-12-31T10:24:51.468Z,18.10
2022-12-31T10:27:17.886Z,18.19
2022-12-31T10:29:49.064Z,18.23
2022-12-31T10:32:42.720Z,18.14
2022-12-31T10:35:23.613Z,18.16
2022-12-31T10:37:59.339Z,18.24
2022-12-31T10:40:56.507Z,18.27
2022-12-31T10:43:48.080Z,18.34
2022-12-31T10:46:44.936Z,18.32
2022-12-31T10:49:28.446Z,18.46
2022-12-31T10:52:13.291Z,18.32
2022-12-31T10:55:09.992Z,18.38
2022-12-31T10:57:45.478Z,18.53
2022-12-31T11:00:23.072Z,18.38
2022-12-31T11:03:10.846Z,18.40
2022-12-31T11:05:55.489Z,18.58
2022-12-31T11:08:33.702Z,18.65
2022-12-31T11:11:31.294Z,18.57
2022-12-31T11:14:16.399Z,18.61
2022-12-31T11:16:56.273Z,18.73
2022-12-31T11:19:47.542Z,18.80
2022-12-31T11:22:51.213Z,18.76
2022-12-31T11:25:30.410Z,18.73
2022-12-31T11:28:19.808Z,18.78
2022-12-31T11:31:01.620Z,18.69
2022-12-31T11:33:58.823Z,18.74
2022-12-31T11:36:40.601Z,18.73
2022-12-31T11:39:33.270Z,18.81
2022-12-31T11:42:11.598Z,18.72
2022-12-31T11:45:17.251Z,18.73
2022-12-31T11:48:30.191Z,18.77
2022-12-31T11:51:34.821Z,18.72
2022-12-31T11:54:25.725Z,18.74
2022-12-31T11:57:23.342Z,18.75
2022-12-31T11:59:57.723Z,18.52
2022-12-31T12:02:35.985Z,18.73
2022-12-31T12:05:10.627Z,18.56
2022-12-31T12:07:37.976Z,18.62
2022-12-31T12:10:22.564Z,18.66
2022-12-31T12:12:49.089Z,18.69
2022-12-31T12:15:29.286Z,18.58
2022-12-31T12:18:06.152Z,18.62
2022-12-31T12:20:36.075Z,18.63
2022-12-31T12:23:26.656Z,18.70
2022-12-31T12:25:53.213Z,18.64
2022-12-31T12:28:26.534Z,18.70
2022-12-31T12:30:56.667Z,18.73
2022-12-31T12:33:24.236Z,18.67
2022-12-31T12:35:50.943Z,18.71
2022-12-31T12:38:22.936Z,18.55
2022-12-31T12:40:56.095Z,18.39
2022-12-31T12:43:34.412Z,18.29
2022-12-31T12:46:05.001Z,18.09
2022-12-31T12:48:41.205Z,17.81
2022-12-31T12:51:22.712Z,17.52
2022-12-31T12:54:15.734Z,17.49
2022-12-31T12:57:07.976Z,17.26
2022-12-31T12:59:56.154Z,17.36
2022-12-31T13:02:34.472Z,17.28
2022-12-31T13:05:27.868Z,17.43
2022-12-31T13:08:13.727Z,17.34
2022-12-31T13:10:55.311Z,17.44
2022-12-31T13:13:47.314Z,17.45
2022-12-31T13:16:16.630Z,17.60
2022-12-31T13:19:09.774Z,17.55
2022-12-31T13:22:03.826Z,17.73
2022-12-31T13:24:52.611Z,17.77
2022-12-31T13:27:29.061Z,17.82
2022-12-31T13:30:00.625Z,17.88
2022-12-31T13:32:37.618Z,17.94
2022-12-31T13:35:22.396Z,18.04
2022-12-31T13:37:52.953Z,18.09
2022-12-31T13:40:49.027Z,17.96
2022-12-31T13:43:19.733Z,18.07
2022-12-31T13:45:51.557Z,18.17
2022-12-31T13:48:24.748Z,18.17
2022-12-31T13:51:01.688Z,18.19
2022-12-31T13:53:43.652Z,18.13
2022-12-31T13:56:15.725Z,18.11
2022-12-31T13:58:53.093Z,17.75
2022-12-31T14:01:34.127Z,17.75
2022-12-31T14:04:22.968Z,17.67
2022-12-31T14:07:20.668Z,17.71
2022-12-31T14:09:47.243Z,17.65
2022-12-31T14:12:40.731Z,17.54
2022-12-31T14:15:39.325Z,17.59
2022-12-31T14:18:29.301Z,17.71
2022-12-31T14:21:09.171Z,17.74
2022-12-31T14:24:00.923Z,17.84
2022-12-31T14:26:55.352Z,17.84
2022-12-31T14:29:37.600Z,17.82
2022-12-31T14:32:17.387Z,17.92
2022-12-31T14:35:11.938Z,17.99
2022-12-31T14:38:11.525Z,17.94
2022-12-31T14:40:51.134Z,17.98
2022-12-31T14:43:54.200Z,17.98
2022-12-31T14:47:06.398Z,17.98
2022-12-31T14:49:41.091Z,17.98
2022-12-31T14:52:28.585Z,18.00
2022-12-31T14:55:34.431Z,17.95
2022-12-31T15:01:19.184Z,17.84
2022-12-31T15:03:46.457Z,17.82
2022-12-31T15:06:28.392Z,17.95
2022-12-31T15:09:30.076Z,17.83
2022-12-31T15:12:18.343Z,17.69
2022-12-31T15:15:03.677Z,17.80
2022-12-31T15:17:45.378Z,17.59
2022-12-31T15:20:42.799Z,17.50
2022-12-31T15:23:40.090Z,17.50
2022-12-31T15:26:08.444Z,17.57
2022-12-31T15:28:40.361Z,17.59
2022-12-31T15:31:20.227Z,17.49
2022-12-31T15:34:21.423Z,17.49
2022-12-31T15:36:56.504Z,17.47
2022-12-31T15:39:32.173Z,17.55
2022-12-31T15:44:56.802Z,17.46
2022-12-31T15:47:57.872Z,17.41
2022-12-31T15:50:25.427Z,17.36
2022-12-31T15:53:01.985Z,17.34
2022-12-31T15:55:50.891Z,17.32
2022-12-31T15:58:21.298Z,17.30
2022-12-31T16:01:10.082Z,17.27
2022-12-31T16:03:36.815Z,17.27
2022-12-31T16:06:10.613Z,17.27
2022-12-31T16:08:37.837Z,17.37
2022-12-31T16:11:06.168Z,17.34
2022-12-31T16:13:36.708Z,17.32
2022-12-31T16:16:07.195Z,17.42
2022-12-31T16:18:41.852Z,17.48
2022-12-31T16:21:35.951Z,17.48
2022-12-31T16:24:25.140Z,17.55
2022-12-31T16:26:53.723Z,17.51
2022-12-31T16:29:22.754Z,17.65
2022-12-31T16:31:51.040Z,17.68
2022-12-31T16:34:26.126Z,17.66
2022-12-31T16:37:00.641Z,17.70
2022-12-31T16:39:36.925Z,17.82
2022-12-31T16:42:23.523Z,17.86
2022-12-31T16:44:51.683Z,17.91
2022-12-31T16:47:23.332Z,17.86
2022-12-31T16:50:07.831Z,17.74
2022-12-31T16:52:38.396Z,17.80
2022-12-31T16:55:14.851Z,17.75
2022-12-31T16:57:44.184Z,17.76
2022-12-31T17:00:16.850Z,17.79
2022-12-31T17:02:47.161Z,17.79
2022-12-31T17:05:22.285Z,17.90
2022-12-31T17:07:49.431Z,17.91
2022-12-31T17:10:19.441Z,17.94
2022-12-31T17:13:26.842Z,17.85
2022-12-31T17:15:43.136Z,17.83
2022-12-31T17:18:19.798Z,17.66
2022-12-31T17:20:48.448Z,17.73
2022-12-31T17:23:36.239Z,17.68
2022-12-31T17:26:11.819Z,17.66
2022-12-31T17:28:44.653Z,17.76
2022-12-31T17:31:36.785Z,17.69
2022-12-31T17:34:15.125Z,17.71
2022-12-31T17:36:55.204Z,17.73
2022-12-31T17:39:23.003Z,17.63
2022-12-31T17:41:51.405Z,17.63
2022-12-31T17:44:23.688Z,17.66
2022-12-31T17:46:51.322Z,17.67
2022-12-31T17:49:22.485Z,17.72
2022-12-31T17:51:48.991Z,17.69
2022-12-31T17:54:17.396Z,17.66
2022-12-31T17:56:44.731Z,17.64
2022-12-31T17:59:20.772Z,17.62
2022-12-31T18:01:48.016Z,17.70
2022-12-31T18:04:16.760Z,17.68
2022-12-31T18:06:43.767Z,17.62
2022-12-31T18:09:10.939Z,17.60
2022-12-31T18:11:38.506Z,17.57
2022-12-31T18:14:05.020Z,17.63
2022-12-31T18:16:31.498Z,17.60
2022-12-31T18:19:00.231Z,17.56
2022-12-31T18:21:32.669Z,17.58
2022-12-31T18:26:27.288Z,17.52
2022-12-31T18:28:54.028Z,17.54
2022-12-31T18:31:29.010Z,17.48
2022-12-31T18:33:58.117Z,17.51
2022-12-31T18:36:28.914Z,17.44
2022-12-31T18:38:55.366Z,17.36
2022-12-31T18:41:27.855Z,17.43
2022-12-31T18:43:55.209Z,17.37
2022-12-31T18:46:23.513Z,17.35
2022-12-31T18:48:50.229Z,17.36
2022-12-31T18:51:26.470Z,17.31
2022-12-31T18:53:57.999Z,17.30
2022-12-31T18:56:25.227Z,17.27
2022-12-31T18:58:52.057Z,17.31
2022-12-31T19:01:26.232Z,17.16
2022-12-31T19:03:54.703Z,17.21
2022-12-31T19:06:21.329Z,17.17
2022-12-31T19:08:47.801Z,17.24
2022-12-31T19:11:14.893Z,17.18
2022-12-31T19:13:41.506Z,17.13
2022-12-31T19:16:09.210Z,17.20
2022-12-31T19:18:35.731Z,17.23
2022-12-31T19:21:03.137Z,17.19
2022-12-31T19:23:29.643Z,17.29
2022-12-31T19:25:56.101Z,17.18
2022-12-31T19:28:25.446Z,17.28
2022-12-31T19:30:52.566Z,17.17
2022-12-31T19:33:19.932Z,17.22
2022-12-31T19:35:47.244Z,17.12
2022-12-31T19:38:18.899Z,17.27
2022-12-31T19:40:45.896Z,17.13
2022-12-31T19:43:17.002Z,17.21
2022-12-31T19:45:44.423Z,17.28
2022-12-31T19:48:13.582Z,17.24
2022-12-31T19:50:47.239Z,17.24
2022-12-31T19:53:25.373Z,17.27
2022-12-31T19:55:53.510Z,17.30
2022-12-31T19:58:24.682Z,17.24
2022-12-31T20:00:57.085Z,17.24
2022-12-31T20:03:28.113Z,17.31
2022-12-31T20:06:12.727Z,17.19
2022-12-31T20:08:43.243Z,17.26
2022-12-31T20:11:20.526Z,17.23
2022-12-31T20:13:48.330Z,17.31
2022-12-31T20:16:17.133Z,17.26
2022-12-31T20:18:45.464Z,17.28
2022-12-31T20:21:14.527Z,17.29
2022-12-31T20:23:41.007Z,17.32
2022-12-31T20:26:07.504Z,17.26
2022-12-31T20:28:35.064Z,17.26
2022-12-31T20:31:08.876Z,17.25
2022-12-31T20:33:35.908Z,17.20
2022-12-31T20:36:04.316Z,17.26
2022-12-31T20:38:31.357Z,17.36
2022-12-31T20:41:16.216Z,17.33
2022-12-31T20:43:43.518Z,17.38
2022-12-31T20:46:16.292Z,17.33
2022-12-31T20:48:44.406Z,17.33
2022-12-31T20:51:12.394Z,17.29
2022-12-31T20:53:38.872Z,17.35
2022-12-31T20:56:07.457Z,17.35
2022-12-31T20:58:34.828Z,17.35
2022-12-31T21:01:04.952Z,17.38
2022-12-31T21:04:03.687Z,17.45
2022-12-31T21:06:18.172Z,17.50
2022-12-31T21:08:45.409Z,17.54
2022-12-31T21:11:31.381Z,17.52
2022-12-31T21:13:59.025Z,17.54
2022-12-31T21:16:26.452Z,17.56
2022-12-31T21:18:54.143Z,17.60
2022-12-31T21:21:21.033Z,17.62
2022-12-31T21:23:47.844Z,17.64
2022-12-31T21:26:14.407Z,17.60
2022-12-31T21:28:42.212Z,17.76
2022-12-31T21:31:11.839Z,17.72
2022-12-31T21:33:38.587Z,17.75
2022-12-31T21:36:05.359Z,17.72
2022-12-31T21:38:31.866Z,17.70
2022-12-31T21:41:02.760Z,17.66
2022-12-31T21:43:29.215Z,17.79
2022-12-31T21:46:07.190Z,17.81
2022-12-31T21:48:34.321Z,17.98
2022-12-31T21:51:15.808Z,17.95
2022-12-31T21:53:42.362Z,17.98
2022-12-31T21:56:10.047Z,18.00
2022-12-31T21:58:41.961Z,17.91
2022-12-31T22:01:34.338Z,18.02
2022-12-31T22:04:00.884Z,18.07
2022-12-31T22:06:27.768Z,18.08
2022-12-31T22:08:55.886Z,18.04
2022-12-31T22:11:25.317Z,18.04
2022-12-31T22:13:52.256Z,18.05
2022-12-31T22:16:20.187Z,18.08
2022-12-31T22:18:47.251Z,18.04
2022-12-31T22:21:18.845Z,18.07
2022-12-31T22:23:48.539Z,18.12
2022-12-31T22:26:17.437Z,18.10
2022-12-31T22:28:45.417Z,18.03
2022-12-31T22:31:17.820Z,18.03
2022-12-31T22:33:45.245Z,18.15
2022-12-31T22:36:14.196Z,18.12
2022-12-31T22:38:40.897Z,18.17
2022-12-31T22:41:09.131Z,18.29
2022-12-31T22:43:38.799Z,18.24
2022-12-31T22:46:07.639Z,18.34
2022-12-31T22:48:34.197Z,18.34
2022-12-31T22:51:00.811Z,18.30
2022-12-31T22:53:27.247Z,18.37
2022-12-31T22:55:54.880Z,18.33
2022-12-31T22:58:24.925Z,18.32
2022-12-31T23:00:52.349Z,18.42
2022-12-31T23:03:19.119Z,18.30
2022-12-31T23:05:50.941Z,18.34
2022-12-31T23:08:23.085Z,18.38
2022-12-31T23:11:01.598Z,18.29
2022-12-31T23:13:55.056Z,18.30
2022-12-31T23:16:41.444Z,18.34
2022-12-31T23:19:27.289Z,18.32
2022-12-31T23:22:12.658Z,18.35
2022-12-31T23:24:39.483Z,18.32
2022-12-31T23:27:07.018Z,18.45
2022-12-31T23:29:33.816Z,18.38
2022-12-31T23:32:00.409Z,18.30
2022-12-31T23:34:26.988Z,18.35
2022-12-31T23:36:53.460Z,18.32
2022-12-31T23:39:20.052Z,18.35
2022-12-31T23:41:46.764Z,18.44
2022-12-31T23:44:13.415Z,18.30
2022-12-31T23:46:40.525Z,18.41
2022-12-31T23:49:07.018Z,18.41
2022-12-31T23:51:33.490Z,18.40
2022-12-31T23:54:00.860Z,18.37
2022-12-31T23:56:27.421Z,18.52
2022-12-31T23:58:58.528Z,18.48
